Ruidoso, New Mexico
Current Conditions -  °F | °C
As of 2:15 AM on Monday 22 Dec 2014 (Local Time) from KSRR Reporting Station
Clear Clear  
Wind Chill: 38°   Ceiling: Unl
Heat Index: 46°   Visibility: 10mi
Dew Point: 27°   Wind: 26mph
Humidity: 46%   Direction: 300°WNW
Pressure: 29.88"   Gusts: 46mph
Location:  33.45°N, 105.52°W
Report Text: KSRR 220915Z AUTO 30023G40KT 10SM CLR 08/M03 A2988 RMK AO2
Loading
Personal Weather Stations






























Interactive Weather Map New forecast layout! Learn more

10-Day Weather Forecast

Advertisements
Track Severe Weather on mobile